Time,TemperatureF,DewpointF,PressureIn,WindDirection,WindDirectionDegrees,WindSpeedMPH,WindSpeedGustMPH,Humidity,HourlyPrecipIn,Conditions,Clouds,dailyrainin,SoftwareType,DateUTC
2013-07-19 00:01:00,74.9,14.7,30.14,North,0,0.0,0.0,1,0.00,,,0.00,WUHU216HW,2013-07-19 04:01:00,
2013-07-19 00:06:00,74.9,14.7,30.14,North,0,0.0,0.0,1,0.00,,,0.00,WUHU216HW,2013-07-19 04:06:00,
2013-07-19 00:11:00,74.7,14.6,30.14,North,0,0.0,0.0,1,0.00,,,0.00,WUHU216HW,2013-07-19 04:11:00,
2013-07-19 00:16:00,74.7,14.6,30.14,North,0,0.0,0.0,1,0.00,,,0.00,WUHU216HW,2013-07-19 04:16:00,
2013-07-19 00:21:00,74.9,14.7,30.14,North,0,0.0,0.0,1,0.00,,,0.00,WUHU216HW,2013-07-19 04:21:00,
2013-07-19 00:26:00,74.9,14.7,30.13,North,0,0.0,0.0,1,0.00,,,0.00,WUHU216HW,2013-07-19 04:26:00,
2013-07-19 00:31:00,74.9,14.7,30.13,North,0,0.0,0.0,1,0.00,,,0.00,WUHU216HW,2013-07-19 04:31:00,
2013-07-19 00:36:00,74.9,14.7,30.13,North,0,0.0,0.0,1,0.00,,,0.00,WUHU216HW,2013-07-19 04:36:00,
2013-07-19 00:41:00,74.9,14.7,30.13,North,0,0.0,0.0,1,0.00,,,0.00,WUHU216HW,2013-07-19 04:41:00,
2013-07-19 00:46:00,74.7,14.6,30.13,North,0,0.0,0.0,1,0.00,,,0.00,WUHU216HW,2013-07-19 04:46:00,
2013-07-19 00:51:00,74.7,14.6,30.13,North,0,0.0,0.0,1,0.00,,,0.00,WUHU216HW,2013-07-19 04:51:00,
2013-07-19 00:56:00,74.5,14.4,30.13,North,0,0.0,0.0,1,0.00,,,0.00,WUHU216HW,2013-07-19 04:56:00,
2013-07-19 01:01:00,74.5,14.4,30.13,North,0,0.0,0.0,1,0.00,,,0.00,WUHU216HW,2013-07-19 05:01:00,
2013-07-19 01:06:00,74.3,14.3,30.13,North,0,0.0,0.0,1,0.00,,,0.00,WUHU216HW,2013-07-19 05:06:00,
2013-07-19 01:11:00,74.2,14.2,30.13,North,0,0.0,0.0,1,0.00,,,0.00,WUHU216HW,2013-07-19 05:11:00,
2013-07-19 01:16:00,74.0,14.0,30.13,North,0,0.0,0.0,1,0.00,,,0.00,WUHU216HW,2013-07-19 05:16:00,
2013-07-19 01:21:00,73.8,14.0,30.13,North,0,0.0,0.0,1,0.00,,,0.00,WUHU216HW,2013-07-19 05:21:00,
2013-07-19 01:26:00,73.8,14.0,30.13,North,0,0.0,0.0,1,0.00,,,0.00,WUHU216HW,2013-07-19 05:26:00,
2013-07-19 01:31:00,73.6,13.8,30.13,North,0,0.0,0.0,1,0.00,,,0.00,WUHU216HW,2013-07-19 05:31:00,
2013-07-19 01:36:00,73.4,13.7,30.13,North,0,0.0,0.0,1,0.00,,,0.00,WUHU216HW,2013-07-19 05:36:00,
2013-07-19 01:41:00,73.3,13.5,30.13,North,0,0.0,0.0,1,0.00,,,0.00,WUHU216HW,2013-07-19 05:41:00,
2013-07-19 01:46:00,73.1,13.4,30.12,North,0,0.0,0.0,1,0.00,,,0.00,WUHU216HW,2013-07-19 05:46:00,
2013-07-19 01:51:00,73.1,13.4,30.12,North,0,0.0,0.0,1,0.00,,,0.00,WUHU216HW,2013-07-19 05:51:00,
2013-07-19 01:56:00,72.9,13.2,30.12,North,0,0.0,0.0,1,0.00,,,0.00,WUHU216HW,2013-07-19 05:56:00,
2013-07-19 02:01:00,72.9,13.2,30.12,North,0,0.0,0.0,1,0.00,,,0.00,WUHU216HW,2013-07-19 06:01:00,
2013-07-19 02:06:00,72.7,13.2,30.12,North,0,0.0,0.0,1,0.00,,,0.00,WUHU216HW,2013-07-19 06:06:00,
2013-07-19 02:11:00,72.7,13.2,30.12,North,0,0.0,0.0,1,0.00,,,0.00,WUHU216HW,2013-07-19 06:11:00,
2013-07-19 02:16:00,72.7,13.2,30.12,North,0,0.0,0.0,1,0.00,,,0.00,WUHU216HW,2013-07-19 06:16:00,
2013-07-19 02:21:00,72.7,13.2,30.12,North,0,0.0,0.0,1,0.00,,,0.00,WUHU216HW,2013-07-19 06:21:00,
2013-07-19 02:26:00,72.7,13.2,30.11,North,0,0.0,0.0,1,0.00,,,0.00,WUHU216HW,2013-07-19 06:26:00,
2013-07-19 02:31:00,72.7,13.2,30.11,North,0,0.0,0.0,1,0.00,,,0.00,WUHU216HW,2013-07-19 06:31:00,
2013-07-19 02:36:00,72.5,13.0,30.11,North,0,0.0,0.0,1,0.00,,,0.00,WUHU216HW,2013-07-19 06:36:00,
2013-07-19 02:41:00,72.5,13.0,30.11,North,0,0.0,0.0,1,0.00,,,0.00,WUHU216HW,2013-07-19 06:41:00,
2013-07-19 02:46:00,72.5,13.0,30.11,North,0,0.0,0.0,1,0.00,,,0.00,WUHU216HW,2013-07-19 06:46:00,
2013-07-19 02:51:00,72.5,13.0,30.10,North,0,0.0,0.0,1,0.00,,,0.00,WUHU216HW,2013-07-19 06:51:00,
2013-07-19 02:56:00,72.5,13.0,30.10,North,0,0.0,0.0,1,0.00,,,0.00,WUHU216HW,2013-07-19 06:56:00,
2013-07-19 03:01:00,72.4,12.8,30.11,North,0,0.0,0.0,1,0.00,,,0.00,WUHU216HW,2013-07-19 07:01:00,
2013-07-19 03:06:00,72.4,12.8,30.11,North,0,0.0,0.0,1,0.00,,,0.00,WUHU216HW,2013-07-19 07:06:00,
2013-07-19 03:11:00,72.2,12.7,30.10,North,0,0.0,0.0,1,0.00,,,0.00,WUHU216HW,2013-07-19 07:11:00,
2013-07-19 03:16:00,72.0,12.5,30.10,North,0,0.0,0.0,1,0.00,,,0.00,WUHU216HW,2013-07-19 07:16:00,
2013-07-19 03:21:00,71.6,12.2,30.10,North,0,0.0,0.0,1,0.00,,,0.00,WUHU216HW,2013-07-19 07:21:00,
2013-07-19 03:26:00,71.6,12.2,30.10,North,0,0.0,0.0,1,0.00,,,0.00,WUHU216HW,2013-07-19 07:26:00,
2013-07-19 03:31:00,71.3,12.0,30.10,North,0,0.0,0.0,1,0.00,,,0.00,WUHU216HW,2013-07-19 07:31:00,
2013-07-19 03:36:00,71.3,12.0,30.10,North,0,0.0,0.0,1,0.00,,,0.00,WUHU216HW,2013-07-19 07:36:00,
2013-07-19 03:41:00,71.1,11.8,30.10,North,0,0.0,0.0,1,0.00,,,0.00,WUHU216HW,2013-07-19 07:41:00,
2013-07-19 03:46:00,71.1,11.8,30.10,North,0,0.0,0.0,1,0.00,,,0.00,WUHU216HW,2013-07-19 07:46:00,
2013-07-19 03:51:00,70.9,11.7,30.10,North,0,0.0,0.0,1,0.00,,,0.00,WUHU216HW,2013-07-19 07:51:00,
2013-07-19 03:56:00,70.9,11.7,30.10,North,0,0.0,0.0,1,0.00,,,0.00,WUHU216HW,2013-07-19 07:56:00,
2013-07-19 04:01:00,70.9,11.7,30.10,North,0,0.0,0.0,1,0.00,,,0.00,WUHU216HW,2013-07-19 08:01:00,
2013-07-19 04:06:00,70.7,11.5,30.10,North,0,0.0,0.0,1,0.00,,,0.00,WUHU216HW,2013-07-19 08:06:00,
2013-07-19 04:11:00,70.6,11.3,30.10,North,0,0.0,0.0,1,0.00,,,0.00,WUHU216HW,2013-07-19 08:11:00,
2013-07-19 04:16:00,70.7,11.5,30.10,North,0,0.0,0.0,1,0.00,,,0.00,WUHU216HW,2013-07-19 08:16:00,
2013-07-19 04:21:00,70.6,11.3,30.10,North,0,0.0,0.0,1,0.00,,,0.00,WUHU216HW,2013-07-19 08:21:00,
2013-07-19 04:26:00,70.6,11.3,30.10,North,0,0.0,0.0,1,0.00,,,0.00,WUHU216HW,2013-07-19 08:26:00,
2013-07-19 04:31:00,70.6,11.3,30.09,North,0,0.0,0.0,1,0.00,,,0.00,WUHU216HW,2013-07-19 08:31:00,
2013-07-19 04:36:00,70.6,11.3,30.09,North,0,0.0,0.0,1,0.00,,,0.00,WUHU216HW,2013-07-19 08:36:00,
2013-07-19 04:41:00,70.6,11.3,30.09,North,0,0.0,0.0,1,0.00,,,0.00,WUHU216HW,2013-07-19 08:41:00,
2013-07-19 04:46:00,70.6,11.3,30.09,North,0,0.0,0.0,1,0.00,,,0.00,WUHU216HW,2013-07-19 08:46:00,
2013-07-19 04:51:00,70.6,11.3,30.09,North,0,0.0,0.0,1,0.00,,,0.00,WUHU216HW,2013-07-19 08:51:00,
2013-07-19 04:56:00,70.6,11.3,30.09,North,0,0.0,0.0,1,0.00,,,0.00,WUHU216HW,2013-07-19 08:56:00,
2013-07-19 05:01:00,70.4,11.3,30.09,North,0,0.0,0.0,1,0.00,,,0.00,WUHU216HW,2013-07-19 09:01:00,
2013-07-19 05:06:00,70.4,11.3,30.09,North,0,0.0,0.0,1,0.00,,,0.00,WUHU216HW,2013-07-19 09:06:00,
2013-07-19 05:11:00,70.4,11.3,30.09,North,0,0.0,0.0,1,0.00,,,0.00,WUHU216HW,2013-07-19 09:11:00,
2013-07-19 05:16:00,70.2,11.1,30.10,North,0,0.0,0.0,1,0.00,,,0.00,WUHU216HW,2013-07-19 09:16:00,
2013-07-19 05:21:00,70.2,11.1,30.10,North,0,0.0,0.0,1,0.00,,,0.00,WUHU216HW,2013-07-19 09:21:00,
2013-07-19 05:26:00,70.2,11.1,30.10,North,0,0.0,0.0,1,0.00,,,0.00,WUHU216HW,2013-07-19 09:26:00,
2013-07-19 05:31:00,70.2,11.1,30.10,North,0,0.0,0.0,1,0.00,,,0.00,WUHU216HW,2013-07-19 09:31:00,
2013-07-19 05:36:00,70.0,11.0,30.10,North,0,0.0,0.0,1,0.00,,,0.00,WUHU216HW,2013-07-19 09:36:00,
2013-07-19 05:41:00,70.0,11.0,30.10,North,0,0.0,0.0,1,0.00,,,0.00,WUHU216HW,2013-07-19 09:41:00,
2013-07-19 05:46:00,69.8,10.8,30.10,North,0,0.0,0.0,1,0.00,,,0.00,WUHU216HW,2013-07-19 09:46:00,
2013-07-19 05:51:00,69.8,10.8,30.10,North,0,0.0,0.0,1,0.00,,,0.00,WUHU216HW,2013-07-19 09:51:00,
2013-07-19 05:56:00,69.8,10.8,30.11,North,0,0.0,0.0,1,0.00,,,0.00,WUHU216HW,2013-07-19 09:56:00,
2013-07-19 06:01:00,69.8,10.8,30.11,North,0,0.0,0.0,1,0.00,,,0.00,WUHU216HW,2013-07-19 10:01:00,
2013-07-19 06:06:00,69.7,10.7,30.11,North,0,0.0,0.0,1,0.00,,,0.00,WUHU216HW,2013-07-19 10:06:00,
2013-07-19 06:11:00,69.5,10.5,30.11,North,0,0.0,0.0,1,0.00,,,0.00,WUHU216HW,2013-07-19 10:11:00,
2013-07-19 06:16:00,69.5,10.5,30.10,North,0,0.0,0.0,1,0.00,,,0.00,WUHU216HW,2013-07-19 10:16:00,
2013-07-19 06:21:00,69.5,10.5,30.11,North,0,0.0,0.0,1,0.00,,,0.00,WUHU216HW,2013-07-19 10:21:00,
2013-07-19 06:26:00,69.5,10.5,30.11,North,0,0.0,0.0,1,0.00,,,0.00,WUHU216HW,2013-07-19 10:26:00,
2013-07-19 06:31:00,69.5,10.5,30.11,North,0,0.0,0.0,1,0.00,,,0.00,WUHU216HW,2013-07-19 10:31:00,
2013-07-19 06:36:00,69.5,10.5,30.11,North,0,0.0,0.0,1,0.00,,,0.00,WUHU216HW,2013-07-19 10:36:00,
2013-07-19 06:41:00,69.5,10.5,30.11,North,0,0.0,0.0,1,0.00,,,0.00,WUHU216HW,2013-07-19 10:41:00,
2013-07-19 06:46:00,69.5,10.5,30.11,North,0,0.0,0.0,1,0.00,,,0.00,WUHU216HW,2013-07-19 10:46:00,
2013-07-19 06:51:00,69.5,10.5,30.11,North,0,0.0,0.0,1,0.00,,,0.00,WUHU216HW,2013-07-19 10:51:00,
2013-07-19 06:56:00,69.8,10.8,30.11,North,0,0.0,0.0,1,0.00,,,0.00,WUHU216HW,2013-07-19 10:56:00,
2013-07-19 07:01:00,69.8,10.8,30.11,North,0,0.0,0.0,1,0.00,,,0.00,WUHU216HW,2013-07-19 11:01:00,
2013-07-19 07:06:00,69.8,10.8,30.11,North,0,0.0,0.0,1,0.00,,,0.00,WUHU216HW,2013-07-19 11:06:00,
2013-07-19 07:11:00,70.0,11.0,30.11,North,0,0.0,0.0,1,0.00,,,0.00,WUHU216HW,2013-07-19 11:11:00,
2013-07-19 07:16:00,70.0,11.0,30.11,North,0,0.0,0.0,1,0.00,,,0.00,WUHU216HW,2013-07-19 11:16:00,
2013-07-19 07:21:00,70.2,11.1,30.11,North,0,0.0,0.0,1,0.00,,,0.00,WUHU216HW,2013-07-19 11:21:00,
2013-07-19 07:26:00,70.2,11.1,30.11,North,0,0.0,0.0,1,0.00,,,0.00,WUHU216HW,2013-07-19 11:26:00,
2013-07-19 07:31:00,70.2,11.1,30.12,North,0,0.0,0.0,1,0.00,,,0.00,WUHU216HW,2013-07-19 11:31:00,
2013-07-19 07:36:00,70.4,11.3,30.12,North,0,0.0,0.0,1,0.00,,,0.00,WUHU216HW,2013-07-19 11:36:00,
2013-07-19 07:41:00,70.4,11.3,30.12,North,0,0.0,0.0,1,0.00,,,0.00,WUHU216HW,2013-07-19 11:41:00,
2013-07-19 07:46:00,70.6,11.3,30.12,North,0,0.0,0.0,1,0.00,,,0.00,WUHU216HW,2013-07-19 11:46:00,
2013-07-19 07:51:00,70.7,11.5,30.12,North,0,0.0,0.0,1,0.00,,,0.00,WUHU216HW,2013-07-19 11:51:00,
2013-07-19 07:56:00,70.9,11.7,30.12,North,0,0.0,0.0,1,0.00,,,0.00,WUHU216HW,2013-07-19 11:56:00,
2013-07-19 08:01:00,71.5,12.1,30.12,North,0,0.0,0.0,1,0.00,,,0.00,WUHU216HW,2013-07-19 12:01:00,
2013-07-19 08:06:00,71.6,12.2,30.12,North,0,0.0,0.0,1,0.00,,,0.00,WUHU216HW,2013-07-19 12:06:00,
2013-07-19 08:11:00,71.6,12.2,30.13,North,0,0.0,0.0,1,0.00,,,0.00,WUHU216HW,2013-07-19 12:11:00,
2013-07-19 08:16:00,72.2,12.7,30.13,North,0,0.0,0.0,1,0.00,,,0.00,WUHU216HW,2013-07-19 12:16:00,
2013-07-19 08:21:00,72.2,12.7,30.13,North,0,0.0,0.0,1,0.00,,,0.00,WUHU216HW,2013-07-19 12:21:00,
2013-07-19 08:26:00,72.2,12.7,30.13,North,0,0.0,0.0,1,0.00,,,0.00,WUHU216HW,2013-07-19 12:26:00,
2013-07-19 08:31:00,72.4,12.8,30.13,North,0,0.0,0.0,1,0.00,,,0.00,WUHU216HW,2013-07-19 12:31:00,
2013-07-19 08:36:00,72.5,13.0,30.13,North,0,0.0,0.0,1,0.00,,,0.00,WUHU216HW,2013-07-19 12:36:00,
2013-07-19 08:41:00,72.7,13.2,30.13,North,0,0.0,0.0,1,0.00,,,0.00,WUHU216HW,2013-07-19 12:41:00,
2013-07-19 08:46:00,72.9,13.2,30.13,North,0,0.0,0.0,1,0.00,,,0.00,WUHU216HW,2013-07-19 12:46:00,
2013-07-19 08:51:00,73.1,13.4,30.13,North,0,0.0,0.0,1,0.00,,,0.00,WUHU216HW,2013-07-19 12:51:00,
2013-07-19 08:56:00,73.1,13.4,30.14,North,0,0.0,0.0,1,0.00,,,0.00,WUHU216HW,2013-07-19 12:56:00,
2013-07-19 09:01:00,73.4,13.7,30.13,North,0,0.0,0.0,1,0.00,,,0.00,WUHU216HW,2013-07-19 13:01:00,
2013-07-19 09:06:00,73.8,14.0,30.13,North,0,0.0,0.0,1,0.00,,,0.00,WUHU216HW,2013-07-19 13:06:00,
2013-07-19 09:11:00,74.2,14.2,30.13,North,0,0.0,0.0,1,0.00,,,0.00,WUHU216HW,2013-07-19 13:11:00,
2013-07-19 09:16:00,74.5,14.4,30.13,North,0,0.0,0.0,1,0.00,,,0.00,WUHU216HW,2013-07-19 13:16:00,
2013-07-19 09:21:00,75.2,14.9,30.13,North,0,0.0,0.0,1,0.00,,,0.00,WUHU216HW,2013-07-19 13:21:00,
2013-07-19 09:26:00,76.0,15.5,30.13,North,0,0.0,0.0,1,0.00,,,0.00,WUHU216HW,2013-07-19 13:26:00,
2013-07-19 09:31:00,77.0,16.4,30.13,North,0,0.0,0.0,1,0.00,,,0.00,WUHU216HW,2013-07-19 13:31:00,
2013-07-19 09:36:00,77.4,16.7,30.13,North,0,0.0,0.0,1,0.00,,,0.00,WUHU216HW,2013-07-19 13:36:00,
2013-07-19 09:41:00,77.8,16.9,30.13,North,0,0.0,0.0,1,0.00,,,0.00,WUHU216HW,2013-07-19 13:41:00,
2013-07-19 09:46:00,78.7,17.6,30.13,North,0,0.0,0.0,1,0.00,,,0.00,WUHU216HW,2013-07-19 13:46:00,
2013-07-19 09:51:00,79.2,17.9,30.13,North,0,0.0,0.0,1,0.00,,,0.00,WUHU216HW,2013-07-19 13:51:00,
2013-07-19 09:56:00,80.3,18.8,30.13,North,0,0.0,0.0,1,0.00,,,0.00,WUHU216HW,2013-07-19 13:56:00,
2013-07-19 10:01:00,80.3,18.8,30.13,North,0,0.0,0.0,1,0.00,,,0.00,WUHU216HW,2013-07-19 14:01:00,
2013-07-19 10:06:00,80.6,19.1,30.13,North,0,0.0,0.0,1,0.00,,,0.00,WUHU216HW,2013-07-19 14:06:00,
2013-07-19 10:11:00,81.5,19.8,30.13,North,0,0.0,0.0,1,0.00,,,0.00,WUHU216HW,2013-07-19 14:11:00,
2013-07-19 10:16:00,82.1,20.3,30.13,North,0,0.0,0.0,1,0.00,,,0.00,WUHU216HW,2013-07-19 14:16:00,
2013-07-19 10:21:00,82.4,20.5,30.13,North,0,0.0,0.0,1,0.00,,,0.00,WUHU216HW,2013-07-19 14:21:00,
2013-07-19 10:26:00,82.8,20.8,30.13,North,0,0.0,0.0,1,0.00,,,0.00,WUHU216HW,2013-07-19 14:26:00,
2013-07-19 10:31:00,83.0,20.9,30.13,North,0,0.0,0.0,1,0.00,,,0.00,WUHU216HW,2013-07-19 14:31:00,
2013-07-19 10:36:00,83.3,21.2,30.13,North,0,0.0,0.0,1,0.00,,,0.00,WUHU216HW,2013-07-19 14:36:00,
2013-07-19 10:41:00,83.7,21.4,30.13,North,0,0.0,0.0,1,0.00,,,0.00,WUHU216HW,2013-07-19 14:41:00,
2013-07-19 10:46:00,83.7,21.4,30.13,North,0,0.0,0.0,1,0.00,,,0.00,WUHU216HW,2013-07-19 14:46:00,
2013-07-19 10:51:00,83.9,21.5,30.13,North,0,0.0,0.0,1,0.00,,,0.00,WUHU216HW,2013-07-19 14:51:00,
2013-07-19 10:56:00,84.2,21.8,30.13,North,0,0.0,0.0,1,0.00,,,0.00,WUHU216HW,2013-07-19 14:56:00,
2013-07-19 11:01:00,84.4,22.0,30.13,North,0,0.0,0.0,1,0.00,,,0.00,WUHU216HW,2013-07-19 15:01:00,
2013-07-19 11:06:00,84.2,21.8,30.13,North,0,0.0,0.0,1,0.00,,,0.00,WUHU216HW,2013-07-19 15:06:00,
2013-07-19 11:11:00,84.4,22.0,30.13,North,0,0.0,0.0,1,0.00,,,0.00,WUHU216HW,2013-07-19 15:11:00,
2013-07-19 11:16:00,84.6,22.1,30.13,North,0,0.0,0.0,1,0.00,,,0.00,WUHU216HW,2013-07-19 15:16:00,
2013-07-19 11:21:00,85.1,22.5,30.13,North,0,0.0,0.0,1,0.00,,,0.00,WUHU216HW,2013-07-19 15:21:00,
2013-07-19 11:26:00,85.5,22.8,30.13,North,0,0.0,0.0,1,0.00,,,0.00,WUHU216HW,2013-07-19 15:26:00,
2013-07-19 11:31:00,85.3,22.7,30.13,North,0,0.0,0.0,1,0.00,,,0.00,WUHU216HW,2013-07-19 15:31:00,
2013-07-19 11:36:00,85.3,22.7,30.13,North,0,0.0,0.0,1,0.00,,,0.00,WUHU216HW,2013-07-19 15:36:00,
2013-07-19 11:41:00,85.3,22.7,30.13,North,0,0.0,0.0,1,0.00,,,0.00,WUHU216HW,2013-07-19 15:41:00,
2013-07-19 11:46:00,85.7,23.0,30.13,North,0,0.0,0.0,1,0.00,,,0.00,WUHU216HW,2013-07-19 15:46:00,
2013-07-19 11:51:00,86.2,23.4,30.13,North,0,0.0,0.0,1,0.00,,,0.00,WUHU216HW,2013-07-19 15:51:00,
2013-07-19 11:56:00,86.2,23.4,30.13,North,0,0.0,0.0,1,0.00,,,0.00,WUHU216HW,2013-07-19 15:56:00,
2013-07-19 12:01:00,86.6,23.7,30.13,North,0,0.0,0.0,1,0.00,,,0.00,WUHU216HW,2013-07-19 16:01:00,
2013-07-19 12:06:00,86.8,23.8,30.13,North,0,0.0,0.0,6,0.00,,,0.00,WUHU216HW,2013-07-19 16:06:00,
2013-07-19 12:11:00,86.8,23.8,30.13,North,0,0.0,0.0,2,0.00,,,0.00,WUHU216HW,2013-07-19 16:11:00,
2013-07-19 12:16:00,87.1,24.1,30.12,North,0,0.0,0.0,1,0.00,,,0.00,WUHU216HW,2013-07-19 16:16:00,
2013-07-19 12:21:00,87.1,24.1,30.12,North,0,0.0,0.0,5,0.00,,,0.00,WUHU216HW,2013-07-19 16:21:00,
2013-07-19 12:26:00,87.1,24.1,30.12,North,0,0.0,0.0,2,0.00,,,0.00,WUHU216HW,2013-07-19 16:26:00,
2013-07-19 12:31:00,87.1,24.1,30.12,North,0,0.0,0.0,3,0.00,,,0.00,WUHU216HW,2013-07-19 16:31:00,
2013-07-19 12:36:00,86.9,23.9,30.12,North,0,0.0,0.0,6,0.00,,,0.00,WUHU216HW,2013-07-19 16:36:00,
2013-07-19 12:41:00,86.8,23.8,30.12,North,0,0.0,0.0,3,0.00,,,0.00,WUHU216HW,2013-07-19 16:41:00,
2013-07-19 12:46:00,86.6,23.7,30.12,North,0,0.0,0.0,7,0.00,,,0.00,WUHU216HW,2013-07-19 16:46:00,
2013-07-19 12:51:00,86.8,23.8,30.12,North,0,0.0,0.0,7,0.00,,,0.00,WUHU216HW,2013-07-19 16:51:00,
2013-07-19 12:56:00,86.9,23.9,30.11,North,0,0.0,0.0,1,0.00,,,0.00,WUHU216HW,2013-07-19 16:56:00,
2013-07-19 13:01:00,87.1,25.8,30.11,North,0,0.0,0.0,11,0.00,,,0.00,WUHU216HW,2013-07-19 17:01:00,
2013-07-19 13:06:00,86.8,25.5,30.11,North,0,0.0,0.0,11,0.00,,,0.00,WUHU216HW,2013-07-19 17:06:00,
2013-07-19 13:11:00,86.6,23.7,30.11,North,0,0.0,0.0,6,0.00,,,0.00,WUHU216HW,2013-07-19 17:11:00,
2013-07-19 13:16:00,86.2,23.4,30.11,North,0,0.0,0.0,3,0.00,,,0.00,WUHU216HW,2013-07-19 17:16:00,
2013-07-19 13:21:00,86.0,23.2,30.11,North,0,0.0,0.0,1,0.00,,,0.00,WUHU216HW,2013-07-19 17:21:00,
2013-07-19 13:26:00,86.2,23.4,30.11,North,0,0.0,0.0,1,0.00,,,0.00,WUHU216HW,2013-07-19 17:26:00,
2013-07-19 13:31:00,86.9,23.9,30.11,North,0,0.0,0.0,1,0.00,,,0.00,WUHU216HW,2013-07-19 17:31:00,
2013-07-19 13:36:00,87.1,24.1,30.11,North,0,0.0,0.0,1,0.00,,,0.00,WUHU216HW,2013-07-19 17:36:00,
2013-07-19 13:41:00,87.5,24.4,30.10,North,0,0.0,0.0,1,0.00,,,0.00,WUHU216HW,2013-07-19 17:41:00,
2013-07-19 13:46:00,87.5,24.4,30.10,North,0,0.0,0.0,2,0.00,,,0.00,WUHU216HW,2013-07-19 17:46:00,
2013-07-19 13:51:00,87.7,24.5,30.10,North,0,0.0,0.0,8,0.00,,,0.00,WUHU216HW,2013-07-19 17:51:00,
2013-07-19 13:56:00,87.5,24.4,30.10,North,0,0.0,0.0,6,0.00,,,0.00,WUHU216HW,2013-07-19 17:56:00,
2013-07-19 14:01:00,87.1,24.1,30.10,North,0,0.0,0.0,5,0.00,,,0.00,WUHU216HW,2013-07-19 18:01:00,
2013-07-19 14:06:00,86.9,23.9,30.10,North,0,0.0,0.0,1,0.00,,,0.00,WUHU216HW,2013-07-19 18:06:00,
2013-07-19 14:11:00,87.1,24.1,30.09,North,0,0.0,0.0,1,0.00,,,0.00,WUHU216HW,2013-07-19 18:11:00,
2013-07-19 14:16:00,87.7,24.5,30.09,North,0,0.0,0.0,3,0.00,,,0.00,WUHU216HW,2013-07-19 18:16:00,
2013-07-19 14:21:00,88.2,24.9,30.09,North,0,0.0,0.0,2,0.00,,,0.00,WUHU216HW,2013-07-19 18:21:00,
2013-07-19 14:26:00,88.0,24.8,30.09,North,0,0.0,0.0,5,0.00,,,0.00,WUHU216HW,2013-07-19 18:26:00,
2013-07-19 14:31:00,88.2,28.4,30.08,North,0,0.0,0.0,12,0.00,,,0.00,WUHU216HW,2013-07-19 18:31:00,
2013-07-19 14:36:00,88.2,24.9,30.08,North,0,0.0,0.0,10,0.00,,,0.00,WUHU216HW,2013-07-19 18:36:00,
2013-07-19 14:41:00,88.4,25.0,30.08,North,0,0.0,0.0,10,0.00,,,0.00,WUHU216HW,2013-07-19 18:41:00,
2013-07-19 14:46:00,88.4,44.6,30.08,North,0,0.0,0.0,22,0.00,,,0.00,WUHU216HW,2013-07-19 18:46:00,
2013-07-19 14:51:00,88.9,25.0,30.08,North,0,0.0,0.0,10,0.00,,,0.00,WUHU216HW,2013-07-19 18:51:00,
2013-07-19 14:56:00,89.3,36.1,30.08,North,0,0.0,0.0,16,0.00,,,0.00,WUHU216HW,2013-07-19 18:56:00,
2013-07-19 15:01:00,89.3,44.2,30.07,North,0,0.0,0.0,21,0.00,,,0.00,WUHU216HW,2013-07-19 19:01:00,
2013-07-19 15:06:00,89.1,51.6,30.07,North,0,0.0,0.0,28,0.00,,,0.00,WUHU216HW,2013-07-19 19:06:00,
2013-07-19 15:11:00,89.6,47.7,30.07,North,0,0.0,0.0,24,0.00,,,0.00,WUHU216HW,2013-07-19 19:11:00,
2013-07-19 15:16:00,90.0,55.3,30.07,North,0,0.0,0.0,31,0.00,,,0.00,WUHU216HW,2013-07-19 19:16:00,
2013-07-19 15:21:00,89.8,53.3,30.07,North,0,0.0,0.0,29,0.00,,,0.00,WUHU216HW,2013-07-19 19:21:00,
2013-07-19 15:26:00,89.5,47.5,30.07,North,0,0.0,0.0,24,0.00,,,0.00,WUHU216HW,2013-07-19 19:26:00,
2013-07-19 15:31:00,89.3,49.6,30.07,North,0,0.0,0.0,26,0.00,,,0.00,WUHU216HW,2013-07-19 19:31:00,
2013-07-19 15:36:00,89.5,44.3,30.06,North,0,0.0,0.0,21,0.00,,,0.00,WUHU216HW,2013-07-19 19:36:00,
2013-07-19 15:41:00,89.5,51.8,30.06,North,0,0.0,0.0,28,0.00,,,0.00,WUHU216HW,2013-07-19 19:41:00,
2013-07-19 15:46:00,89.3,44.2,30.06,North,0,0.0,0.0,21,0.00,,,0.00,WUHU216HW,2013-07-19 19:46:00,
2013-07-19 15:51:00,89.3,37.9,30.06,North,0,0.0,0.0,17,0.00,,,0.00,WUHU216HW,2013-07-19 19:51:00,
2013-07-19 15:56:00,89.6,45.5,30.05,North,0,0.0,0.0,22,0.00,,,0.00,WUHU216HW,2013-07-19 19:56:00,
2013-07-19 16:01:00,90.0,45.8,30.05,North,0,0.0,0.0,22,0.00,,,0.00,WUHU216HW,2013-07-19 20:01:00,
2013-07-19 16:06:00,90.0,46.9,30.05,North,0,0.0,0.0,23,0.00,,,0.00,WUHU216HW,2013-07-19 20:06:00,
2013-07-19 16:11:00,90.0,46.9,30.04,North,0,0.0,0.0,23,0.00,,,0.00,WUHU216HW,2013-07-19 20:11:00,
2013-07-19 16:16:00,89.6,48.8,30.04,North,0,0.0,0.0,25,0.00,,,0.00,WUHU216HW,2013-07-19 20:16:00,
2013-07-19 16:21:00,89.5,45.4,30.04,North,0,0.0,0.0,22,0.00,,,0.00,WUHU216HW,2013-07-19 20:21:00,
2013-07-19 16:26:00,89.5,44.3,30.04,North,0,0.0,0.0,21,0.00,,,0.00,WUHU216HW,2013-07-19 20:26:00,
2013-07-19 16:31:00,89.5,32.0,30.04,North,0,0.0,0.0,13,0.00,,,0.00,WUHU216HW,2013-07-19 20:31:00,
2013-07-19 16:36:00,88.9,52.4,30.04,North,0,0.0,0.0,29,0.00,,,0.00,WUHU216HW,2013-07-19 20:36:00,
2013-07-19 16:41:00,88.9,41.0,30.04,North,0,0.0,0.0,19,0.00,,,0.00,WUHU216HW,2013-07-19 20:41:00,
2013-07-19 16:46:00,89.1,39.5,30.04,North,0,0.0,0.0,18,0.00,,,0.00,WUHU216HW,2013-07-19 20:46:00,
2013-07-19 16:51:00,89.3,36.1,30.04,North,0,0.0,0.0,16,0.00,,,0.00,WUHU216HW,2013-07-19 20:51:00,
2013-07-19 16:56:00,88.9,41.0,30.04,North,0,0.0,0.0,19,0.00,,,0.00,WUHU216HW,2013-07-19 20:56:00,
2013-07-19 17:01:00,88.6,37.4,30.04,North,0,0.0,0.0,17,0.00,,,0.00,WUHU216HW,2013-07-19 21:01:00,
2013-07-19 17:06:00,88.4,43.5,30.04,North,0,0.0,0.0,21,0.00,,,0.00,WUHU216HW,2013-07-19 21:06:00,
2013-07-19 17:11:00,88.0,36.9,30.04,North,0,0.0,0.0,17,0.00,,,0.00,WUHU216HW,2013-07-19 21:11:00,
2013-07-19 17:16:00,87.7,36.6,30.04,North,0,0.0,0.0,17,0.00,,,0.00,WUHU216HW,2013-07-19 21:16:00,
2013-07-19 17:21:00,87.3,29.4,30.04,North,0,0.0,0.0,13,0.00,,,0.00,WUHU216HW,2013-07-19 21:21:00,
2013-07-19 17:26:00,87.1,27.6,30.04,North,0,0.0,0.0,12,0.00,,,0.00,WUHU216HW,2013-07-19 21:26:00,
2013-07-19 17:31:00,86.9,27.4,30.04,North,0,0.0,0.0,12,0.00,,,0.00,WUHU216HW,2013-07-19 21:31:00,
2013-07-19 17:36:00,86.9,27.4,30.04,North,0,0.0,0.0,12,0.00,,,0.00,WUHU216HW,2013-07-19 21:36:00,
2013-07-19 17:41:00,86.9,27.4,30.04,North,0,0.0,0.0,12,0.00,,,0.00,WUHU216HW,2013-07-19 21:41:00,
2013-07-19 17:46:00,86.9,27.4,30.03,North,0,0.0,0.0,12,0.00,,,0.00,WUHU216HW,2013-07-19 21:46:00,
2013-07-19 17:51:00,86.9,23.9,30.03,North,0,0.0,0.0,8,0.00,,,0.00,WUHU216HW,2013-07-19 21:51:00,
2013-07-19 17:56:00,86.8,23.8,30.03,North,0,0.0,0.0,6,0.00,,,0.00,WUHU216HW,2013-07-19 21:56:00,
2013-07-19 18:01:00,86.8,23.8,30.04,North,0,0.0,0.0,8,0.00,,,0.00,WUHU216HW,2013-07-19 22:01:00,
2013-07-19 18:06:00,86.8,25.5,30.03,North,0,0.0,0.0,11,0.00,,,0.00,WUHU216HW,2013-07-19 22:06:00,
2013-07-19 18:11:00,86.8,34.1,30.03,North,0,0.0,0.0,16,0.00,,,0.00,WUHU216HW,2013-07-19 22:11:00,
2013-07-19 18:16:00,86.6,30.5,30.03,North,0,0.0,0.0,14,0.00,,,0.00,WUHU216HW,2013-07-19 22:16:00,
2013-07-19 18:21:00,86.6,33.9,30.03,North,0,0.0,0.0,16,0.00,,,0.00,WUHU216HW,2013-07-19 22:21:00,
2013-07-19 18:26:00,86.4,28.6,30.03,North,0,0.0,0.0,13,0.00,,,0.00,WUHU216HW,2013-07-19 22:26:00,
2013-07-19 18:31:00,86.4,25.2,30.03,North,0,0.0,0.0,11,0.00,,,0.00,WUHU216HW,2013-07-19 22:31:00,
2013-07-19 18:36:00,86.2,23.4,30.03,North,0,0.0,0.0,10,0.00,,,0.00,WUHU216HW,2013-07-19 22:36:00,
2013-07-19 18:41:00,86.0,23.2,30.03,North,0,0.0,0.0,7,0.00,,,0.00,WUHU216HW,2013-07-19 22:41:00,
2013-07-19 18:46:00,86.0,23.2,30.03,North,0,0.0,0.0,7,0.00,,,0.00,WUHU216HW,2013-07-19 22:46:00,
2013-07-19 18:51:00,85.9,23.0,30.03,North,0,0.0,0.0,6,0.00,,,0.00,WUHU216HW,2013-07-19 22:51:00,
2013-07-19 18:56:00,85.5,22.8,30.03,North,0,0.0,0.0,8,0.00,,,0.00,WUHU216HW,2013-07-19 22:56:00,
2013-07-19 19:01:00,85.5,22.8,30.03,North,0,0.0,0.0,6,0.00,,,0.00,WUHU216HW,2013-07-19 23:01:00,
2013-07-19 19:06:00,85.3,22.7,30.04,North,0,0.0,0.0,3,0.00,,,0.00,WUHU216HW,2013-07-19 23:06:00,
2013-07-19 19:11:00,85.1,22.5,30.04,North,0,0.0,0.0,2,0.00,,,0.00,WUHU216HW,2013-07-19 23:11:00,
2013-07-19 19:16:00,85.0,22.3,30.03,North,0,0.0,0.0,1,0.00,,,0.00,WUHU216HW,2013-07-19 23:16:00,
2013-07-19 19:21:00,84.6,22.1,30.04,North,0,0.0,0.0,1,0.00,,,0.00,WUHU216HW,2013-07-19 23:21:00,
2013-07-19 19:26:00,84.2,21.8,30.04,North,0,0.0,0.0,1,0.00,,,0.00,WUHU216HW,2013-07-19 23:26:00,
2013-07-19 19:31:00,84.1,21.7,30.04,North,0,0.0,0.0,1,0.00,,,0.00,WUHU216HW,2013-07-19 23:31:00,
2013-07-19 19:36:00,83.9,21.5,30.04,North,0,0.0,0.0,1,0.00,,,0.00,WUHU216HW,2013-07-19 23:36:00,
2013-07-19 19:41:00,83.9,21.5,30.04,North,0,0.0,0.0,1,0.00,,,0.00,WUHU216HW,2013-07-19 23:41:00,
2013-07-19 19:46:00,83.7,21.4,30.04,North,0,0.0,0.0,1,0.00,,,0.00,WUHU216HW,2013-07-19 23:46:00,
2013-07-19 19:51:00,83.5,21.2,30.04,North,0,0.0,0.0,1,0.00,,,0.00,WUHU216HW,2013-07-19 23:51:00,
2013-07-19 19:56:00,83.3,21.2,30.04,North,0,0.0,0.0,1,0.00,,,0.00,WUHU216HW,2013-07-19 23:56:00,
2013-07-19 20:01:00,83.2,21.1,30.04,North,0,0.0,0.0,1,0.00,,,0.00,WUHU216HW,2013-07-20 00:01:00,
2013-07-19 20:06:00,83.2,21.1,30.04,North,0,0.0,0.0,1,0.00,,,0.00,WUHU216HW,2013-07-20 00:06:00,
2013-07-19 20:11:00,82.8,20.8,30.03,North,0,0.0,0.0,1,0.00,,,0.00,WUHU216HW,2013-07-20 00:11:00,
2013-07-19 20:16:00,82.6,20.6,30.03,North,0,0.0,0.0,1,0.00,,,0.00,WUHU216HW,2013-07-20 00:16:00,
2013-07-19 20:21:00,82.3,20.3,30.03,North,0,0.0,0.0,1,0.00,,,0.00,WUHU216HW,2013-07-20 00:21:00,
2013-07-19 20:26:00,82.3,20.3,30.03,North,0,0.0,0.0,1,0.00,,,0.00,WUHU216HW,2013-07-20 00:26:00,
2013-07-19 20:31:00,81.9,20.1,30.03,North,0,0.0,0.0,1,0.00,,,0.00,WUHU216HW,2013-07-20 00:31:00,
2013-07-19 20:36:00,81.7,20.0,30.03,North,0,0.0,0.0,1,0.00,,,0.00,WUHU216HW,2013-07-20 00:36:00,
2013-07-19 20:41:00,81.5,19.8,30.03,North,0,0.0,0.0,1,0.00,,,0.00,WUHU216HW,2013-07-20 00:41:00,
2013-07-19 20:46:00,81.5,19.8,30.03,North,0,0.0,0.0,1,0.00,,,0.00,WUHU216HW,2013-07-20 00:46:00,
2013-07-19 20:51:00,81.4,19.6,30.03,North,0,0.0,0.0,1,0.00,,,0.00,WUHU216HW,2013-07-20 00:51:00,
2013-07-19 20:56:00,81.4,19.6,30.02,North,0,0.0,0.0,1,0.00,,,0.00,WUHU216HW,2013-07-20 00:56:00,
2013-07-19 21:01:00,81.2,19.5,30.02,North,0,0.0,0.0,1,0.00,,,0.00,WUHU216HW,2013-07-20 01:01:00,
2013-07-19 21:06:00,81.0,19.4,30.03,North,0,0.0,0.0,1,0.00,,,0.00,WUHU216HW,2013-07-20 01:06:00,
2013-07-19 21:11:00,80.8,19.3,30.03,North,0,0.0,0.0,1,0.00,,,0.00,WUHU216HW,2013-07-20 01:11:00,
2013-07-19 21:16:00,80.6,19.1,30.03,North,0,0.0,0.0,1,0.00,,,0.00,WUHU216HW,2013-07-20 01:16:00,
2013-07-19 21:21:00,80.6,19.1,30.03,North,0,0.0,0.0,1,0.00,,,0.00,WUHU216HW,2013-07-20 01:21:00,
2013-07-19 21:26:00,80.5,18.9,30.04,North,0,0.0,0.0,1,0.00,,,0.00,WUHU216HW,2013-07-20 01:26:00,
2013-07-19 21:31:00,80.3,18.8,30.04,North,0,0.0,0.0,1,0.00,,,0.00,WUHU216HW,2013-07-20 01:31:00,
2013-07-19 21:36:00,80.3,18.8,30.04,North,0,0.0,0.0,1,0.00,,,0.00,WUHU216HW,2013-07-20 01:36:00,
2013-07-19 21:41:00,80.1,18.6,30.04,North,0,0.0,0.0,1,0.00,,,0.00,WUHU216HW,2013-07-20 01:41:00,
2013-07-19 21:46:00,79.9,18.6,30.05,North,0,0.0,0.0,1,0.00,,,0.00,WUHU216HW,2013-07-20 01:46:00,
2013-07-19 21:51:00,79.7,18.4,30.05,North,0,0.0,0.0,1,0.00,,,0.00,WUHU216HW,2013-07-20 01:51:00,
2013-07-19 21:56:00,79.7,18.4,30.05,North,0,0.0,0.0,1,0.00,,,0.00,WUHU216HW,2013-07-20 01:56:00,
2013-07-19 22:01:00,79.6,18.2,30.05,North,0,0.0,0.0,1,0.00,,,0.00,WUHU216HW,2013-07-20 02:01:00,
2013-07-19 22:06:00,79.6,18.2,30.06,North,0,0.0,0.0,1,0.00,,,0.00,WUHU216HW,2013-07-20 02:06:00,
2013-07-19 22:11:00,79.4,18.1,30.06,North,0,0.0,0.0,1,0.00,,,0.00,WUHU216HW,2013-07-20 02:11:00,
2013-07-19 22:16:00,79.2,17.9,30.06,North,0,0.0,0.0,1,0.00,,,0.00,WUHU216HW,2013-07-20 02:16:00,
2013-07-19 22:21:00,79.2,17.9,30.06,North,0,0.0,0.0,1,0.00,,,0.00,WUHU216HW,2013-07-20 02:21:00,
2013-07-19 22:26:00,78.8,17.6,30.06,North,0,0.0,0.0,1,0.00,,,0.00,WUHU216HW,2013-07-20 02:26:00,
2013-07-19 22:31:00,78.8,17.6,30.06,North,0,0.0,0.0,1,0.00,,,0.00,WUHU216HW,2013-07-20 02:31:00,
2013-07-19 22:36:00,78.5,17.4,30.06,North,0,0.0,0.0,1,0.00,,,0.00,WUHU216HW,2013-07-20 02:36:00,
2013-07-19 22:41:00,78.3,17.3,30.06,North,0,0.0,0.0,1,0.00,,,0.00,WUHU216HW,2013-07-20 02:41:00,
2013-07-19 22:46:00,78.3,17.3,30.06,North,0,0.0,0.0,1,0.00,,,0.00,WUHU216HW,2013-07-20 02:46:00,
2013-07-19 22:51:00,78.1,17.1,30.06,North,0,0.0,0.0,1,0.00,,,0.00,WUHU216HW,2013-07-20 02:51:00,
2013-07-19 22:56:00,77.6,16.7,30.07,North,0,0.0,0.0,1,0.00,,,0.00,WUHU216HW,2013-07-20 02:56:00,
2013-07-19 23:01:00,77.6,16.7,30.07,North,0,0.0,0.0,1,0.00,,,0.00,WUHU216HW,2013-07-20 03:01:00,
2013-07-19 23:06:00,77.2,16.5,30.07,North,0,0.0,0.0,1,0.00,,,0.00,WUHU216HW,2013-07-20 03:06:00,
2013-07-19 23:11:00,77.0,16.4,30.07,North,0,0.0,0.0,1,0.00,,,0.00,WUHU216HW,2013-07-20 03:11:00,
2013-07-19 23:16:00,76.9,16.2,30.07,North,0,0.0,0.0,1,0.00,,,0.00,WUHU216HW,2013-07-20 03:16:00,
2013-07-19 23:21:00,77.0,16.4,30.06,North,0,0.0,0.0,1,0.00,,,0.00,WUHU216HW,2013-07-20 03:21:00,
2013-07-19 23:26:00,76.9,16.2,30.07,North,0,0.0,0.0,1,0.00,,,0.00,WUHU216HW,2013-07-20 03:26:00,
2013-07-19 23:31:00,76.7,16.1,30.07,North,0,0.0,0.0,1,0.00,,,0.00,WUHU216HW,2013-07-20 03:31:00,
2013-07-19 23:36:00,76.3,15.9,30.07,North,0,0.0,0.0,1,0.00,,,0.00,WUHU216HW,2013-07-20 03:36:00,
2013-07-19 23:41:00,76.3,15.9,30.07,North,0,0.0,0.0,1,0.00,,,0.00,WUHU216HW,2013-07-20 03:41:00,
2013-07-19 23:46:00,76.3,15.9,30.06,North,0,0.0,0.0,1,0.00,,,0.00,WUHU216HW,2013-07-20 03:46:00,
2013-07-19 23:51:00,76.0,15.5,30.06,North,0,0.0,0.0,1,0.00,,,0.00,WUHU216HW,2013-07-20 03:51:00,
2013-07-19 23:56:00,75.6,15.2,30.06,North,0,0.0,0.0,1,0.00,,,0.00,WUHU216HW,2013-07-20 03:56:00,